Portada
METAR-TAF:

METAR-TAF

Aeroports :

Szolnok, Hongria

latitud: 47-07N, longitud: 020-14E, altitud: 89 m

Observació

L'informe es va fer fa 47 minuts, a les 00:45 UTC
Vent calma
Temperatura 10°C
Humitat 93%
Pressió 1023 hPa
Visibilitat 10 km o més
sense núvols per sota de 1500 mi sense presència de cumulonimbus.

METAR: LHSN 280045Z 00000KT CAVOK 10/09 Q1023 NOSIG RMK BLU

Hora: 03:32 (01:32 UTC)

Pronòstic

L'informe es va fer fa 5 hores i 17 minuts, a les 20:15 UTC
Pronòstic vàlid del 27 a les 21 UTC al 28 a les 06 UTC
Vent 4 kt del Nord/Nord-Oest
Visibilitat 10 km o més
sense núvols per sota de 1500 mi sense presència de cumulonimbus.

TAF: LHSN 272015Z 2721/2806 34004KT CAVOK

Observacions i pronòstics meteorològics de més de 4000 aeroports (METAR i TAF).

Les estacions disponibles són els punts grocs i vermells al mapa.

Posi el ratolí al punt desitjat per veure el nom de l'estació.

Feu clic per veure les observacions i els pronòstics meteorològics.

Per canviar el mapa: feu clic els botons verds amb una creu de color negre per apropar; al botó verd amb un guió per allunyar la imatge; o en les fletxes verdes per a mapes adjacents.


METAR-TAF: